Time;durP1;ratioP1;P1;durP2;ratioP2;P2;SDS_P1;SDS_P2;PMS_P1;PMS_P2;Temp;Humidity;BMP_temperature;BMP_pressure;BME280_temperature;BME280_humidity;BME280_pressure;Samples;Min_cycle;Max_cycle;Signal;HPM_P1;HPM_P2
2020/12/01 00:00:56;;;;;;;66.18;30.33;;;;;;;-1.03;78.35;96687.38;5093307;28;20051;-74
2020/12/01 00:03:22;;;;;;;76.53;32.00;;;;;;;-1.00;78.26;96688.88;5094051;28;20043;-72
2020/12/01 00:05:48;;;;;;;70.40;30.70;;;;;;;-0.99;78.28;96687.91;5093102;28;20407;-72
2020/12/01 00:08:14;;;;;;;64.72;29.58;;;;;;;-0.95;78.71;96682.34;5093166;28;20036;-73
2020/12/01 00:10:40;;;;;;;73.32;32.10;;;;;;;-0.94;78.38;96680.59;5093173;28;20055;-73
2020/12/01 00:13:07;;;;;;;65.95;28.13;;;;;;;-0.93;78.27;96672.72;5093268;28;20411;-73
2020/12/01 00:15:33;;;;;;;73.65;31.50;;;;;;;-0.90;78.83;96675.03;5093172;28;20044;-73
2020/12/01 00:17:59;;;;;;;72.70;30.10;;;;;;;-0.91;79.04;96670.00;5093773;28;20043;-73
2020/12/01 00:20:26;;;;;;;68.95;30.77;;;;;;;-0.94;79.34;96663.38;5093065;28;20098;-73
2020/12/01 00:22:54;;;;;;;75.20;31.58;;;;;;;-0.95;79.63;96666.91;5093167;28;20051;-73
2020/12/01 00:25:22;;;;;;;69.47;31.60;;;;;;;-0.94;79.24;96663.38;5091887;28;20040;-73
2020/12/01 00:27:48;;;;;;;72.57;31.30;;;;;;;-0.92;79.35;96664.06;5093178;28;20373;-73
2020/12/01 00:30:19;;;;;;;75.18;32.38;;;;;;;-0.90;79.66;96659.56;5093488;28;20043;-73
2020/12/01 00:32:45;;;;;;;68.85;30.30;;;;;;;-0.87;79.51;96645.59;5093353;28;20036;-73
2020/12/01 00:35:19;;;;;;;70.50;30.95;;;;;;;-0.83;79.85;96641.78;5093128;28;20048;-73
2020/12/01 00:37:45;;;;;;;77.10;32.73;;;;;;;-0.80;79.92;96627.81;5093351;28;20028;-73
2020/12/01 00:40:12;;;;;;;70.30;29.52;;;;;;;-0.75;79.63;96631.59;5093013;28;20044;-73
2020/12/01 00:42:39;;;;;;;70.43;30.35;;;;;;;-0.71;79.67;96632.13;5092743;28;20040;-73
2020/12/01 00:45:08;;;;;;;76.85;31.50;;;;;;;-0.73;80.55;96632.28;5092908;28;20385;-73
2020/12/01 00:47:34;;;;;;;68.13;30.63;;;;;;;-0.73;80.25;96626.31;5092912;28;20055;-73
2020/12/01 00:50:00;;;;;;;79.82;31.90;;;;;;;-0.74;80.40;96610.03;5092897;28;20036;-73
2020/12/01 00:52:27;;;;;;;78.65;33.97;;;;;;;-0.75;80.29;96611.00;5091917;28;20032;-72
2020/12/01 00:54:53;;;;;;;71.03;31.52;;;;;;;-0.75;80.34;96605.84;5093256;28;20036;-73
2020/12/01 00:57:20;;;;;;;71.07;30.17;;;;;;;-0.74;81.17;96604.09;5092839;28;20039;-73
2020/12/01 00:59:46;;;;;;;75.88;31.20;;;;;;;-0.74;80.93;96604.88;5092952;28;20040;-73
2020/12/01 01:02:12;;;;;;;78.85;31.80;;;;;;;-0.72;81.16;96591.88;5092514;28;20047;-73
2020/12/01 01:04:38;;;;;;;74.50;31.20;;;;;;;-0.70;81.34;96589.97;5092985;28;20043;-73
2020/12/01 01:07:04;;;;;;;70.88;30.33;;;;;;;-0.68;81.02;96585.47;5092715;28;20032;-73
2020/12/01 01:09:30;;;;;;;69.55;31.15;;;;;;;-0.65;81.35;96583.44;5093035;28;20111;-73
2020/12/01 01:11:56;;;;;;;68.88;30.65;;;;;;;-0.66;81.52;96583.56;5092553;28;20043;-73
2020/12/01 01:14:22;;;;;;;70.97;31.33;;;;;;;-0.66;81.40;96570.69;5090406;28;20412;-73
2020/12/01 01:16:49;;;;;;;71.05;30.02;;;;;;;-0.66;81.54;96565.56;5092534;28;20047;-74
2020/12/01 01:19:15;;;;;;;69.03;29.65;;;;;;;-0.68;81.63;96555.38;5092373;28;20067;-73
2020/12/01 01:21:47;;;;;;;71.18;29.40;;;;;;;-0.67;81.49;96551.88;5094495;28;20058;-73
2020/12/01 01:24:15;;;;;;;71.55;28.58;;;;;;;-0.63;81.23;96554.94;5095426;28;20392;-73
2020/12/01 01:26:54;;;;;;;68.43;29.65;;;;;;;-0.59;81.73;96550.31;5095538;28;20036;-73
2020/12/01 01:29:22;;;;;;;68.78;30.27;;;;;;;-0.60;81.66;96541.00;5096853;28;20044;-73
2020/12/01 01:31:55;;;;;;;77.03;30.95;;;;;;;-0.60;82.25;96544.38;5095820;28;20051;-73
2020/12/01 01:34:23;;;;;;;67.07;29.10;;;;;;;-0.59;81.74;96542.59;5096337;28;20388;-73
2020/12/01 01:36:49;;;;;;;73.97;30.73;;;;;;;-0.58;81.57;96539.88;5096410;28;20389;-73
2020/12/01 01:39:16;;;;;;;69.28;30.63;;;;;;;-0.58;81.66;96537.31;5095491;28;20032;-73
2020/12/01 01:41:42;;;;;;;68.28;28.75;;;;;;;-0.58;81.65;96539.06;5096073;28;20054;-73
2020/12/01 01:44:20;;;;;;;68.72;29.25;;;;;;;-0.55;82.00;96531.03;5094596;28;20047;-73
2020/12/01 01:46:55;;;;;;;70.45;29.02;;;;;;;-0.55;82.85;96531.03;5095129;28;20512;-74
2020/12/01 01:49:32;;;;;;;73.07;30.42;;;;;;;-0.57;82.59;96520.06;5091926;28;20040;-74
2020/12/01 01:51:58;;;;;;;67.50;29.38;;;;;;;-0.57;81.98;96522.66;5096306;28;20043;-74
2020/12/01 01:54:26;;;;;;;71.03;29.65;;;;;;;-0.58;81.94;96519.28;5096152;28;20036;-74
2020/12/01 01:56:56;;;;;;;65.53;28.48;;;;;;;-0.58;81.70;96510.75;5095013;28;20067;-73
2020/12/01 01:59:24;;;;;;;70.32;29.67;;;;;;;-0.55;81.66;96503.50;5095507;28;20407;-74
2020/12/01 02:01:52;;;;;;;62.78;28.35;;;;;;;-0.51;82.11;96504.03;5096065;28;20039;-74
2020/12/01 02:04:19;;;;;;;68.32;28.50;;;;;;;-0.51;81.49;96497.13;5090349;28;20036;-73
2020/12/01 02:06:49;;;;;;;63.85;28.70;;;;;;;-0.48;81.85;96491.69;5090241;28;20051;-74
2020/12/01 02:09:20;;;;;;;62.30;27.20;;;;;;;-0.46;81.73;96488.97;5095877;28;20040;-74
2020/12/01 02:11:48;;;;;;;64.68;27.52;;;;;;;-0.50;82.05;96479.91;5095670;28;20035;-74
2020/12/01 02:14:26;;;;;;;65.75;27.60;;;;;;;-0.50;82.28;96479.91;5095777;28;20388;-73
2020/12/01 02:16:56;;;;;;;67.00;27.75;;;;;;;-0.50;82.21;96483.28;5095789;28;20040;-73
2020/12/01 02:19:26;;;;;;;64.22;28.35;;;;;;;-0.51;82.25;96466.19;5095455;28;20056;-74
2020/12/01 02:21:55;;;;;;;68.10;28.13;;;;;;;-0.52;82.13;96469.75;5086760;28;20045;-74
2020/12/01 02:24:23;;;;;;;66.32;29.52;;;;;;;-0.51;81.94;96462.81;5095185;28;20043;-74
2020/12/01 02:26:53;;;;;;;67.65;29.35;;;;;;;-0.46;82.00;96451.13;5095359;28;20473;-74
2020/12/01 02:29:22;;;;;;;66.47;28.33;;;;;;;-0.45;82.00;96442.44;5095518;28;20043;-74
2020/12/01 02:31:48;;;;;;;69.00;29.52;;;;;;;-0.45;82.11;96433.91;5094890;28;20040;-73
2020/12/01 02:34:21;;;;;;;63.35;27.95;;;;;;;-0.45;82.46;96426.16;5095228;28;20035;-73
2020/12/01 02:36:47;;;;;;;73.07;30.05;;;;;;;-0.47;81.98;96418.56;5094571;28;20507;-74
2020/12/01 02:39:24;;;;;;;69.80;27.73;;;;;;;-0.44;82.37;96412.34;5083282;28;20036;-73
2020/12/01 02:41:54;;;;;;;70.22;29.90;;;;;;;-0.41;82.54;96410.25;5095584;28;20040;-73
2020/12/01 02:44:20;;;;;;;64.43;27.80;;;;;;;-0.41;82.62;96404.31;5094908;28;20032;-74
2020/12/01 02:46:46;;;;;;;72.93;30.42;;;;;;;-0.41;82.60;96404.31;5095081;28;21080;-74
2020/12/01 02:49:12;;;;;;;70.05;29.52;;;;;;;-0.41;82.51;96397.38;5094658;28;20048;-74
2020/12/01 02:51:39;;;;;;;71.88;29.40;;;;;;;-0.42;83.17;96400.09;5095089;28;20043;-74
2020/12/01 02:54:05;;;;;;;66.18;29.50;;;;;;;-0.44;83.22;96395.09;5094569;28;20040;-74
2020/12/01 02:56:31;;;;;;;70.65;28.80;;;;;;;-0.42;83.44;96394.94;5093176;28;20472;-73
2020/12/01 02:58:57;;;;;;;65.05;28.85;;;;;;;-0.39;83.41;96393.84;5094644;28;20036;-74
2020/12/01 03:01:23;;;;;;;83.32;32.08;;;;;;;-0.37;83.56;96389.34;5094459;28;20043;-74
2020/12/01 03:03:49;;;;;;;79.97;31.88;;;;;;;-0.41;83.90;96375.97;5094203;28;20110;-74
2020/12/01 03:06:18;;;;;;;69.32;29.77;;;;;;;-0.35;83.88;96371.97;5093514;28;20047;-74
2020/12/01 03:08:45;;;;;;;73.43;30.40;;;;;;;-0.34;84.03;96371.00;5094140;28;20028;-74
2020/12/01 03:11:12;;;;;;;82.05;31.73;;;;;;;-0.35;84.30;96362.47;5094359;28;20051;-74
2020/12/01 03:13:39;;;;;;;79.20;29.50;;;;;;;-0.36;84.20;96363.41;5093897;28;20472;-73
2020/12/01 03:16:08;;;;;;;79.18;31.95;;;;;;;-0.35;84.18;96356.53;5094150;28;20036;-74
2020/12/01 03:18:43;;;;;;;77.40;30.83;;;;;;;-0.35;85.52;96352.16;5094404;28;20048;-74
2020/12/01 03:21:14;;;;;;;76.80;30.50;;;;;;;-0.36;84.81;96353.13;5094539;28;20043;-73
2020/12/01 03:23:42;;;;;;;80.50;31.77;;;;;;;-0.34;84.79;96356.34;5094452;28;20056;-73
2020/12/01 03:26:10;;;;;;;79.85;30.63;;;;;;;-0.35;85.08;96346.22;5093992;28;20397;-74
2020/12/01 03:28:36;;;;;;;83.65;31.85;;;;;;;-0.36;85.17;96347.16;5092699;28;20036;-73
2020/12/01 03:31:03;;;;;;;85.75;31.67;;;;;;;-0.37;85.78;96337.84;5085966;28;20777;-73
2020/12/01 03:33:29;;;;;;;80.97;30.92;;;;;;;-0.39;86.44;96339.75;5094172;28;20384;-73
2020/12/01 03:35:55;;;;;;;86.38;32.75;;;;;;;-0.41;86.92;96324.44;5094651;28;20043;-73
2020/12/01 03:38:22;;;;;;;87.82;33.00;;;;;;;-0.42;86.48;96327.97;5093889;28;20036;-73
2020/12/01 03:40:48;;;;;;;88.30;33.17;;;;;;;-0.39;86.15;96319.94;5083547;28;20392;-73
2020/12/01 03:43:15;;;;;;;79.45;31.58;;;;;;;-0.36;85.61;96311.91;5093275;28;20464;-73
2020/12/01 03:45:42;;;;;;;87.85;32.25;;;;;;;-0.31;85.46;96303.72;5093317;28;20051;-74
2020/12/01 03:48:09;;;;;;;82.78;32.65;;;;;;;-0.26;85.68;96311.78;5093432;28;20040;-73
2020/12/01 03:50:36;;;;;;;82.68;31.98;;;;;;;-0.24;85.52;96308.09;5093869;28;20043;-73
2020/12/01 03:53:03;;;;;;;77.78;31.10;;;;;;;-0.22;85.35;96307.94;5093737;28;20040;-73
2020/12/01 03:55:29;;;;;;;80.05;31.40;;;;;;;-0.18;85.68;96300.72;5093694;28;20047;-73
2020/12/01 03:57:55;;;;;;;86.32;31.85;;;;;;;-0.19;85.68;96299.09;5093550;28;20035;-73
2020/12/01 04:00:26;;;;;;;74.78;30.30;;;;;;;-0.23;85.88;96293.47;5092134;28;20051;-73
2020/12/01 04:02:53;;;;;;;81.68;30.38;;;;;;;-0.21;85.55;96294.09;5092522;28;20044;-74
2020/12/01 04:05:23;;;;;;;83.10;31.73;;;;;;;-0.14;85.65;96302.03;5092737;28;20035;-73
2020/12/01 04:07:53;;;;;;;78.05;32.95;;;;;;;-0.14;85.69;96284.78;5093553;28;20032;-74
2020/12/01 04:10:22;;;;;;;76.18;29.60;;;;;;;-0.12;85.64;96288.03;5093172;28;20043;-73
2020/12/01 04:12:48;;;;;;;76.07;31.27;;;;;;;-0.10;86.16;96283.53;5093285;28;20051;-73
2020/12/01 04:15:16;;;;;;;79.47;32.17;;;;;;;-0.11;85.94;96279.31;5092760;28;20118;-73
2020/12/01 04:17:43;;;;;;;90.25;32.10;;;;;;;-0.11;85.98;96270.78;5092782;28;20472;-73
2020/12/01 04:20:09;;;;;;;75.93;29.75;;;;;;;-0.10;85.83;96272.41;5092652;28;20424;-73
2020/12/01 04:22:36;;;;;;;77.78;29.48;;;;;;;-0.12;86.66;96267.41;5093073;28;20054;-73
2020/12/01 04:25:04;;;;;;;70.68;28.80;;;;;;;-0.10;86.03;96264.69;5093146;28;20036;-73
2020/12/01 04:27:30;;;;;;;76.95;30.73;;;;;;;-0.05;85.85;96259.84;5093163;28;20039;-73
2020/12/01 04:29:56;;;;;;;76.60;30.52;;;;;;;-0.01;85.88;96258.59;5093416;28;20032;-73
2020/12/01 04:32:22;;;;;;;81.03;31.98;;;;;;;0.02;85.70;96255.69;5093180;28;20388;-73
2020/12/01 04:34:49;;;;;;;71.20;30.30;;;;;;;0.04;85.70;96261.50;5093096;28;20040;-73
2020/12/01 04:37:15;;;;;;;77.85;31.45;;;;;;;0.04;86.05;96255.53;5090207;28;20484;-73
2020/12/01 04:39:41;;;;;;;76.70;30.38;;;;;;;0.03;85.61;96253.94;5093055;28;20051;-73
2020/12/01 04:42:14;;;;;;;64.72;26.80;;;;;;;0.07;85.56;96256.03;5093341;28;20043;-73
2020/12/01 04:44:45;;;;;;;72.43;30.20;;;;;;;0.11;85.74;96251.38;5093164;28;20036;-73
2020/12/01 04:47:16;;;;;;;69.18;28.42;;;;;;;0.14;85.60;96251.84;5093305;28;20063;-73
2020/12/01 04:49:51;;;;;;;63.63;28.52;;;;;;;0.22;85.71;96258.81;5093240;28;20040;-73
2020/12/01 04:52:55;;;;;;;63.90;28.92;;;;;;;0.26;85.82;96249.00;5092835;28;20039;-73
2020/12/01 04:56:03;;;;;;;66.20;28.33;;;;;;;0.29;86.16;96248.66;5085084;28;20024;-73
2020/12/01 04:58:40;;;;;;;66.97;27.88;;;;;;;0.28;85.84;96239.31;5083865;28;20405;-73
2020/12/01 05:01:27;;;;;;;66.07;27.55;;;;;;;0.29;85.98;96235.78;5097078;28;20381;-74
2020/12/01 05:04:16;;;;;;;66.15;27.45;;;;;;;0.32;86.06;96235.47;5086417;28;20040;-73
2020/12/01 05:07:28;;;;;;;74.00;29.50;;;;;;;0.33;85.77;96244.81;5096385;28;20032;-74
2020/12/01 05:09:53;;;;;;;66.03;27.27;;;;;;;0.38;85.83;96247.72;5095505;28;20168;-74
2020/12/01 05:12:42;;;;;;;74.22;29.67;;;;;;;0.39;85.81;96232.06;5094804;28;20396;-73
2020/12/01 05:15:21;;;;;;;66.57;27.60;;;;;;;0.42;85.66;96230.97;5094875;28;20040;-73
2020/12/01 05:17:56;;;;;;;60.20;26.52;;;;;;;0.44;85.59;96239.31;5096829;28;20507;-73
2020/12/01 05:20:23;;;;;;;65.03;27.15;;;;;;;0.48;85.32;96242.41;5096609;28;20048;-73
2020/12/01 05:22:57;;;;;;;62.58;27.75;;;;;;;0.52;85.49;96236.75;5096325;28;20412;-73
2020/12/01 05:25:29;;;;;;;62.40;26.75;;;;;;;0.53;85.57;96233.22;5095835;28;20403;-73
2020/12/01 05:28:17;;;;;;;61.13;26.33;;;;;;;0.57;85.60;96238.88;5095853;28;20040;-73
2020/12/01 05:30:44;;;;;;;62.60;26.35;;;;;;;0.59;85.43;96239.53;5096940;28;20407;-73
2020/12/01 05:33:21;;;;;;;67.13;28.73;;;;;;;0.59;85.68;96240.34;5096200;28;20036;-74
2020/12/01 05:36:05;;;;;;;62.13;27.55;;;;;;;0.62;85.59;96235.81;5085223;28;20035;-73
2020/12/01 05:38:32;;;;;;;59.13;24.67;;;;;;;0.63;85.47;96232.25;5096083;28;20043;-73
2020/12/01 05:41:17;;;;;;;59.75;26.02;;;;;;;0.66;85.56;96229.38;5096070;28;20040;-74
2020/12/01 05:43:43;;;;;;;;;;;;;;;0.66;86.03;96235.34;5096799;28;20032;-73
2020/12/01 05:46:17;;;;;;;62.40;24.83;;;;;;;0.67;85.58;96238.72;5086945;28;19911;-74
2020/12/01 05:49:00;;;;;;;55.47;23.95;;;;;;;0.70;85.48;96235.81;5095701;28;20036;-73
2020/12/01 05:51:44;;;;;;;62.17;23.95;;;;;;;0.71;85.59;96238.22;5095890;28;20476;-74
2020/12/01 05:54:22;;;;;;;52.22;23.13;;;;;;;0.73;85.49;96236.28;5096106;28;20063;-73
2020/12/01 05:56:51;;;;;;;50.45;22.02;;;;;;;0.74;85.49;96237.13;5095432;28;20043;-74
2020/12/01 05:59:21;;;;;;;48.78;21.27;;;;;;;0.76;85.34;96238.56;5095928;28;20480;-73
2020/12/01 06:01:51;;;;;;;47.47;20.77;;;;;;;0.79;85.38;96234.84;5095622;28;20040;-74
2020/12/01 06:04:20;;;;;;;41.03;18.85;;;;;;;0.81;85.44;96238.06;5096227;28;20032;-73
2020/12/01 06:07:01;;;;;;;43.20;19.40;;;;;;;0.81;85.32;96238.88;5094758;28;20074;-73
2020/12/01 06:10:00;;;;;;;44.88;20.77;;;;;;;0.83;85.38;96241.31;5095363;28;20468;-73
2020/12/01 06:12:40;;;;;;;43.63;19.63;;;;;;;0.81;85.44;96225.97;5091347;28;20069;-73
2020/12/01 06:15:16;;;;;;;39.40;17.85;;;;;;;0.82;85.38;96226.78;5087042;28;20048;-73
2020/12/01 06:17:59;;;;;;;40.40;18.27;;;;;;;0.83;85.35;96237.91;5095644;28;20040;-73
2020/12/01 06:20:35;;;;;;;39.78;18.42;;;;;;;0.86;85.21;96229.84;5096385;28;20055;-73
2020/12/01 06:23:07;;;;;;;44.80;17.92;;;;;;;0.85;85.11;96234.19;5095558;28;20044;-73
2020/12/01 06:26:02;;;;;;;46.90;18.60;;;;;;;0.86;85.32;96224.69;5095385;28;20046;-73
2020/12/01 06:29:05;;;;;;;44.83;19.63;;;;;;;0.87;85.32;96228.88;5083364;28;20055;-73
2020/12/01 06:32:04;;;;;;;41.92;19.20;;;;;;;0.87;85.21;96223.72;5087001;28;20031;-73
2020/12/01 06:34:48;;;;;;;44.10;19.63;;;;;;;0.87;85.21;96224.53;5077377;28;20047;-73
2020/12/01 06:37:29;;;;;;;47.53;19.95;;;;;;;0.90;85.18;96237.09;5095224;28;20043;-73
2020/12/01 06:40:27;;;;;;;45.65;19.40;;;;;;;0.90;85.34;96231.13;5095326;28;20392;-73
2020/12/01 06:43:03;;;;;;;45.42;19.45;;;;;;;0.89;85.26;96221.78;5078140;28;20040;-73
2020/12/01 06:45:34;;;;;;;50.22;18.38;;;;;;;0.88;85.16;96226.13;5095087;28;20040;-73
2020/12/01 06:48:12;;;;;;;41.90;18.88;;;;;;;0.89;85.17;96230.34;5094543;28;20051;-73
2020/12/01 06:50:44;;;;;;;36.22;17.70;;;;;;;0.91;85.31;96232.75;5094975;28;20495;-73
2020/12/01 06:53:10;;;;;;;43.08;17.48;;;;;;;0.86;85.29;96219.50;5094864;28;20044;-73
2020/12/01 06:55:54;;;;;;;35.65;16.27;;;;;;;0.84;85.53;96227.44;5094724;28;20040;-73
2020/12/01 06:58:26;;;;;;;34.53;16.15;;;;;;;0.84;85.48;96229.19;5094583;28;20032;-73
2020/12/01 07:01:06;;;;;;;33.70;15.00;;;;;;;0.85;85.48;96233.41;5094459;28;20388;-73
2020/12/01 07:03:32;;;;;;;28.20;14.25;;;;;;;0.83;85.33;96230.97;5094590;28;20043;-73
2020/12/01 07:06:13;;;;;;;29.75;13.68;;;;;;;0.83;85.47;96230.97;5094325;28;20036;-72
2020/12/01 07:08:39;;;;;;;24.60;12.07;;;;;;;0.84;85.32;96234.34;5094980;28;20039;-73
2020/12/01 07:11:12;;;;;;;23.65;11.43;;;;;;;0.85;85.26;96239.38;5094438;28;20365;-73
2020/12/01 07:13:57;;;;;;;23.05;10.82;;;;;;;0.86;85.38;96246.16;5094353;28;20043;-73
2020/12/01 07:16:38;;;;;;;20.38;9.60;;;;;;;0.87;85.39;96228.88;5094789;28;20047;-73
2020/12/01 07:19:40;;;;;;;22.58;11.52;;;;;;;0.89;85.46;96230.34;5093117;28;20052;-73
2020/12/01 07:22:30;;;;;;;22.05;9.07;;;;;;;0.88;85.41;96231.28;5088639;28;20048;-73
2020/12/01 07:25:21;;;;;;;17.60;8.82;;;;;;;0.89;85.28;96222.59;5094598;28;20392;-73
2020/12/01 07:28:11;;;;;;;17.92;8.68;;;;;;;0.90;85.30;96226.75;5094131;28;20058;-73
2020/12/01 07:30:59;;;;;;;13.25;7.65;;;;;;;0.94;85.19;96222.09;5094318;28;20036;-73
2020/12/01 07:33:31;;;;;;;13.25;7.03;;;;;;;0.96;85.05;96222.72;5083315;28;20039;-73
2020/12/01 07:36:13;;;;;;;12.25;6.93;;;;;;;0.98;85.09;96229.34;5093544;28;20055;-73
2020/12/01 07:38:44;;;;;;;12.75;7.10;;;;;;;0.99;85.02;96230.16;5094147;28;20036;-73
2020/12/01 07:41:24;;;;;;;11.80;6.68;;;;;;;1.02;85.01;96235.78;5092039;28;20051;-73
2020/12/01 07:44:07;;;;;;;14.40;7.65;;;;;;;1.01;84.94;96234.19;5093916;28;20472;-73
2020/12/01 07:49:26;;;;;;;10.97;7.37;;;;;;;1.00;84.79;96221.44;5095432;28;20058;-73
2020/12/01 07:52:05;;;;;;;16.30;7.28;;;;;;;1.02;85.22;96229.84;5108467;28;20043;-73
2020/12/01 07:54:35;;;;;;;12.40;6.15;;;;;;;1.02;85.03;96228.06;5104551;28;20036;-73
2020/12/01 07:57:17;;;;;;;16.52;7.50;;;;;;;1.02;84.82;96230.63;5101660;28;20032;-73
2020/12/01 07:59:49;;;;;;;12.80;6.88;;;;;;;1.02;84.86;96229.84;5100684;28;20035;-73
2020/12/01 08:02:18;;;;;;;24.25;9.85;;;;;;;1.01;84.92;96229.03;5097932;28;20039;-73
2020/12/01 08:04:45;;;;;;;40.40;20.27;;;;;;;1.04;84.80;96235.63;5093569;28;20054;-72
2020/12/01 08:07:16;;;;;;;35.65;14.02;;;;;;;1.18;89.35;96227.22;5093375;28;20032;-73
2020/12/01 08:09:44;;;;;;;63.22;25.95;;;;;;;1.20;86.03;96227.06;5096754;28;20040;-73
2020/12/01 08:12:15;;;;;;;22.85;9.77;;;;;;;1.21;85.31;96228.66;5095313;28;20039;-73
2020/12/01 08:14:53;;;;;;;12.32;7.25;;;;;;;1.19;84.89;96231.41;5100321;28;20473;-73
2020/12/01 08:17:26;;;;;;;12.20;6.78;;;;;;;1.18;84.86;96232.41;5100104;28;20042;-73
2020/12/01 08:19:57;;;;;;;17.70;7.47;;;;;;;1.17;84.87;96238.53;5104076;28;20059;-73
2020/12/01 08:22:33;;;;;;;13.52;7.03;;;;;;;1.19;84.71;96240.94;5096132;28;20052;-73
2020/12/01 08:25:03;;;;;;;15.07;8.18;;;;;;;1.18;84.77;96236.75;5093576;28;20063;-73
2020/12/01 08:27:49;;;;;;;13.07;7.00;;;;;;;1.86;96.74;96239.78;5093327;28;20387;-73
2020/12/01 08:30:35;;;;;;;17.63;10.07;;;;;;;2.04;90.69;96237.78;5093027;28;20036;-73
2020/12/01 08:33:42;;;;;;;20.42;8.70;;;;;;;1.92;85.69;96231.38;5093215;28;20036;-73
2020/12/01 08:36:25;;;;;;;13.45;7.95;;;;;;;1.79;84.92;96240.47;5078663;28;20024;-73
2020/12/01 08:39:05;;;;;;;18.10;8.38;;;;;;;1.74;84.53;96229.84;5093404;28;20467;-72
2020/12/01 08:41:42;;;;;;;18.95;8.45;;;;;;;1.71;84.51;96231.94;5093029;28;20043;-73
2020/12/01 08:44:34;;;;;;;18.98;9.32;;;;;;;1.67;84.32;96234.03;5092979;28;20047;-73
2020/12/01 08:47:01;;;;;;;15.43;8.70;;;;;;;1.65;84.35;96230.03;5093528;28;20044;-72
2020/12/01 08:49:42;;;;;;;18.05;9.63;;;;;;;1.64;84.37;96226.63;5092239;28;20036;-73
2020/12/01 08:52:26;;;;;;;15.52;8.55;;;;;;;1.62;84.35;96226.00;5093132;28;20048;-73
2020/12/01 08:55:00;;;;;;;17.77;8.85;;;;;;;1.59;84.36;96229.69;5093124;28;20050;-73
2020/12/01 08:57:34;;;;;;;20.60;9.90;;;;;;;1.58;84.44;96229.88;5093329;28;20046;-73
2020/12/01 09:00:13;;;;;;;15.38;9.15;;;;;;;1.57;84.20;96236.00;5076859;28;20039;-73
2020/12/01 09:02:43;;;;;;;17.73;9.38;;;;;;;1.55;84.38;96233.59;5092863;28;20032;-73
2020/12/01 09:05:20;;;;;;;17.60;8.45;;;;;;;1.51;84.21;96241.84;5093081;28;20051;-73
2020/12/01 09:07:49;;;;;;;16.48;8.27;;;;;;;1.49;84.37;96248.94;5092798;28;20051;-72
2020/12/01 09:10:24;;;;;;;15.13;8.15;;;;;;;1.48;84.36;96252.53;5092969;28;20040;-73
2020/12/01 09:13:29;;;;;;;14.80;7.88;;;;;;;1.47;84.25;96250.91;5092709;28;20040;-73
2020/12/01 09:16:15;;;;;;;20.23;10.25;;;;;;;1.43;84.32;96247.84;5092704;28;20067;-73
2020/12/01 09:24:19;;;;;;;16.98;8.90;;;;;;;1.48;84.75;96255.09;5092944;28;20040;-73
2020/12/01 09:26:45;;;;;;;22.92;12.05;;;;;;;1.48;84.34;96250.75;5092453;28;20059;-73
2020/12/01 09:29:11;;;;;;;24.30;12.13;;;;;;;1.49;84.40;96259.28;5092877;28;20039;-73
2020/12/01 09:31:40;;;;;;;25.00;12.70;;;;;;;1.45;84.35;96253.66;5092686;28;20032;-73
2020/12/01 09:34:06;;;;;;;25.25;10.38;;;;;;;1.38;84.30;96258.66;5092582;28;20040;-73
2020/12/01 09:36:32;;;;;;;17.80;9.65;;;;;;;1.32;84.42;96261.91;5092683;28;20052;-72
2020/12/01 09:38:59;;;;;;;22.70;11.07;;;;;;;1.29;84.50;96264.81;5092192;28;20487;-72
2020/12/01 09:41:26;;;;;;;25.50;12.60;;;;;;;1.28;84.53;96262.41;5093016;28;20211;-73
2020/12/01 09:44:01;;;;;;;23.75;12.38;;;;;;;1.26;84.71;96264.34;5095921;28;20056;-73
2020/12/01 09:46:37;;;;;;;19.83;10.88;;;;;;;1.28;84.83;96273.56;5096659;28;20047;-73
2020/12/01 09:49:04;;;;;;;19.75;10.85;;;;;;;1.32;84.71;96268.84;5082902;28;20062;-73
2020/12/01 09:51:31;;;;;;;23.08;10.52;;;;;;;1.27;84.70;96269.34;5096543;28;20043;-73
2020/12/01 10:03:43;;;;;;;21.67;10.20;;;;;;;1.70;84.70;96272.50;5083231;28;20051;-73
2020/12/01 10:12:52;;;;;;;19.70;10.73;;;;;;;1.57;84.52;96267.81;5106943;28;20385;-73
2020/12/01 10:34:27;;;;;;;29.75;23.92;;;;;;;1.59;84.28;96267.66;5095309;28;20035;-73
2020/12/01 10:36:54;;;;;;;23.27;15.98;;;;;;;1.60;84.28;96269.28;5095842;28;20400;-72
2020/12/01 10:39:22;;;;;;;22.33;14.73;;;;;;;1.56;84.28;96263.63;5092362;28;20380;-73
2020/12/01 10:41:50;;;;;;;18.88;13.85;;;;;;;1.58;84.45;96266.88;5092296;28;20048;-73
2020/12/01 10:44:17;;;;;;;21.42;13.32;;;;;;;1.62;84.29;96264.75;5102625;28;20044;-73
2020/12/01 10:46:45;;;;;;;14.57;10.10;;;;;;;1.65;84.49;96266.22;5090946;28;20039;-73
2020/12/01 10:49:12;;;;;;;13.75;9.20;;;;;;;1.68;84.35;96268.44;5085514;28;20037;-73
2020/12/01 10:51:38;;;;;;;15.23;8.70;;;;;;;1.72;84.58;96267.13;5081296;28;20037;-73
2020/12/01 10:54:04;;;;;;;13.70;7.82;;;;;;;1.74;84.20;96266.03;5081556;28;20055;-73
2020/12/01 10:56:31;;;;;;;14.73;7.82;;;;;;;1.75;83.97;96265.03;5094969;28;20052;-73
2020/12/01 10:58:57;;;;;;;21.17;9.13;;;;;;;1.75;84.26;96270.22;5094806;28;20043;-73
2020/12/01 11:01:23;;;;;;;12.85;8.52;;;;;;;1.72;84.08;96267.97;5094614;28;20039;-73
2020/12/01 11:03:49;;;;;;;14.00;7.57;;;;;;;1.97;91.04;96268.66;5093817;28;20040;-73
2020/12/01 11:06:15;;;;;;;14.20;8.68;;;;;;;2.35;90.08;96268.00;5094481;28;20040;-73
2020/12/01 11:08:41;;;;;;;18.25;8.60;;;;;;;2.36;85.23;96273.00;5094176;28;20055;-73
2020/12/01 11:11:08;;;;;;;15.05;8.38;;;;;;;2.30;84.32;96278.06;5094335;28;20040;-73
2020/12/01 11:13:34;;;;;;;12.20;8.00;;;;;;;2.25;84.17;96270.81;5094408;28;20058;-73
2020/12/01 11:16:01;;;;;;;13.10;7.68;;;;;;;2.20;84.05;96273.88;5094397;28;20039;-73
2020/12/01 11:18:28;;;;;;;13.88;7.78;;;;;;;2.18;83.92;96278.47;5094484;28;20059;-73
2020/12/01 11:20:55;;;;;;;16.33;8.93;;;;;;;2.11;83.60;96274.13;5093782;28;20415;-73
2020/12/01 11:23:21;;;;;;;14.57;9.23;;;;;;;2.08;83.63;96277.03;5093055;28;20052;-73
2020/12/01 11:25:47;;;;;;;12.20;7.88;;;;;;;2.03;83.70;96285.28;5094067;28;20047;-73
2020/12/01 11:28:13;;;;;;;16.73;8.20;;;;;;;2.01;83.71;96279.47;5094227;28;20044;-73
2020/12/01 11:30:39;;;;;;;15.43;9.60;;;;;;;1.98;83.84;96279.84;5094441;28;20472;-73
2020/12/01 11:33:05;;;;;;;17.58;9.25;;;;;;;1.93;83.89;96287.28;5094858;28;20043;-73
2020/12/01 11:35:31;;;;;;;17.00;8.75;;;;;;;1.89;84.10;96284.22;5094249;28;20476;-73
2020/12/01 11:37:58;;;;;;;15.13;8.32;;;;;;;1.85;84.01;96282.94;5093891;28;20055;-73
2020/12/01 11:40:24;;;;;;;11.88;8.07;;;;;;;1.84;84.23;96278.75;5090442;28;20036;-73
2020/12/01 11:42:50;;;;;;;17.58;8.38;;;;;;;1.86;84.51;96279.38;5076631;28;20397;-74
2020/12/01 11:45:17;;;;;;;17.80;10.20;;;;;;;1.89;84.64;96280.81;5097098;28;20039;-73
2020/12/01 11:47:43;;;;;;;14.70;9.32;;;;;;;1.92;84.47;96278.72;5094413;28;20040;-73
2020/12/01 11:50:11;;;;;;;17.85;8.15;;;;;;;1.96;84.52;96287.75;5093183;28;20052;-73
2020/12/01 11:52:37;;;;;;;15.93;8.35;;;;;;;1.98;84.38;96279.84;5092684;28;20036;-73
2020/12/01 11:55:06;;;;;;;14.45;8.20;;;;;;;2.00;84.25;96278.69;5093960;28;20403;-73
2020/12/01 11:57:32;;;;;;;12.82;7.78;;;;;;;1.99;84.19;96282.22;5090681;28;20035;-73
2020/12/01 11:59:59;;;;;;;10.90;7.22;;;;;;;2.01;84.02;96285.44;5091741;28;20407;-73
2020/12/01 12:02:25;;;;;;;13.38;7.80;;;;;;;2.00;83.89;96288.22;5090954;28;20063;-73
2020/12/01 12:04:52;;;;;;;24.35;11.77;;;;;;;1.97;83.74;96286.75;5093192;28;20055;-73
2020/12/01 12:07:18;;;;;;;17.38;10.77;;;;;;;1.95;83.90;96290.50;5092937;28;20036;-74
2020/12/01 12:09:44;;;;;;;19.30;11.15;;;;;;;1.96;84.17;96295.50;5079048;28;20048;-73
2020/12/01 12:12:11;;;;;;;18.27;8.95;;;;;;;1.99;84.34;96291.78;5085578;28;20040;-73
2020/12/01 12:14:37;;;;;;;16.27;8.43;;;;;;;2.02;84.15;96286.28;5082470;28;20036;-73
2020/12/01 12:17:03;;;;;;;17.63;8.35;;;;;;;2.06;84.40;96290.16;5065119;28;20077;-73
2020/12/01 12:19:29;;;;;;;9.88;7.00;;;;;;;2.11;84.16;96287.06;5093476;28;20048;-73
2020/12/01 12:21:55;;;;;;;12.43;7.00;;;;;;;2.13;84.11;96283.31;5087055;28;20503;-73
2020/12/01 12:24:22;;;;;;;11.48;7.60;;;;;;;2.22;84.24;96287.47;5085661;28;20032;-73
2020/12/01 12:26:48;;;;;;;13.25;8.68;;;;;;;2.28;84.11;96280.00;5092245;28;20040;-73
2020/12/01 12:29:14;;;;;;;12.50;9.55;;;;;;;2.34;83.96;96279.34;5090358;28;20044;-73